createdAt,value
2019-03-15T00:01:26.025Z,133.55
2019-03-15T00:03:53.040Z,132.55
2019-03-15T00:06:20.104Z,133.25
2019-03-15T00:08:48.485Z,132.22
2019-03-15T00:11:15.543Z,132.35
2019-03-15T00:13:45.400Z,132.85
2019-03-15T00:16:12.527Z,131.75
2019-03-15T00:18:39.677Z,132.70
2019-03-15T00:21:12.412Z,131.70
2019-03-15T00:23:39.464Z,132.03
2019-03-15T00:26:06.483Z,133.80
2019-03-15T00:28:33.516Z,132.57
2019-03-15T00:31:00.563Z,132.60
2019-03-15T00:33:27.872Z,133.12
2019-03-15T00:35:55.269Z,132.27
2019-03-15T00:38:24.002Z,133.30
2019-03-15T00:40:51.199Z,132.10
2019-03-15T00:43:18.256Z,132.15
2019-03-15T00:45:45.293Z,132.00
2019-03-15T00:48:12.651Z,133.65
2019-03-15T00:50:39.703Z,130.72
2019-03-15T00:53:07.038Z,130.78
2019-03-15T00:55:34.465Z,130.20
2019-03-15T00:58:01.747Z,131.45
2019-03-15T01:00:28.777Z,130.85
2019-03-15T01:02:56.143Z,130.70
2019-03-15T01:05:23.357Z,132.30
2019-03-15T01:07:50.374Z,132.55
2019-03-15T01:10:17.409Z,131.47
2019-03-15T01:12:44.449Z,130.72
2019-03-15T01:15:12.073Z,131.18
2019-03-15T01:17:39.510Z,131.12
2019-03-15T01:20:06.628Z,131.90
2019-03-15T01:22:33.794Z,131.03
2019-03-15T01:25:01.435Z,131.80
2019-03-15T01:27:28.575Z,130.82
2019-03-15T01:29:55.620Z,131.90
2019-03-15T01:32:22.983Z,130.43
2019-03-15T01:34:50.079Z,132.20
2019-03-15T01:37:17.140Z,132.10
2019-03-15T01:39:44.992Z,132.85
2019-03-15T01:42:12.052Z,131.82
2019-03-15T01:44:39.098Z,134.00
2019-03-15T01:47:06.141Z,131.10
2019-03-15T01:49:33.630Z,132.45
2019-03-15T01:52:01.141Z,132.00
2019-03-15T01:54:28.472Z,133.15
2019-03-15T01:56:55.708Z,131.93
2019-03-15T01:59:23.047Z,131.97
2019-03-15T02:01:50.125Z,132.12
2019-03-15T02:04:17.245Z,132.63
2019-03-15T02:06:45.302Z,132.90
2019-03-15T02:09:12.829Z,132.43
2019-03-15T02:11:39.921Z,133.07
2019-03-15T02:14:09.621Z,134.00
2019-03-15T02:16:37.438Z,133.18
2019-03-15T02:19:04.594Z,132.80
2019-03-15T02:21:31.649Z,133.07
2019-03-15T02:23:59.129Z,132.63
2019-03-15T02:26:26.281Z,132.80
2019-03-15T02:28:53.849Z,133.32
2019-03-15T02:31:21.340Z,132.47
2019-03-15T02:33:48.623Z,132.22
2019-03-15T02:36:18.375Z,134.20
2019-03-15T02:38:45.426Z,131.55
2019-03-15T02:41:13.894Z,132.25
2019-03-15T02:43:42.020Z,131.90
2019-03-15T02:46:11.617Z,131.67
2019-03-15T02:48:41.082Z,134.10
2019-03-15T02:51:08.237Z,132.72
2019-03-15T02:53:35.680Z,134.32
2019-03-15T02:56:03.346Z,131.40
2019-03-15T02:58:30.359Z,130.87
2019-03-15T03:00:57.765Z,131.20
2019-03-15T03:03:26.881Z,131.20
2019-03-15T03:05:54.310Z,130.95
2019-03-15T03:08:24.307Z,131.70
2019-03-15T03:10:52.680Z,131.75
2019-03-15T03:13:19.698Z,130.57
2019-03-15T03:15:47.082Z,131.75
2019-03-15T03:18:14.165Z,131.63
2019-03-15T03:20:41.251Z,132.75
2019-03-15T03:23:08.273Z,131.72
2019-03-15T03:25:35.321Z,131.93
2019-03-15T03:28:02.347Z,132.43
2019-03-15T03:30:29.812Z,131.72
2019-03-15T03:32:57.088Z,131.22
2019-03-15T03:35:24.469Z,132.00
2019-03-15T03:37:52.001Z,131.63
2019-03-15T03:40:21.344Z,131.65
2019-03-15T03:42:48.505Z,132.37
2019-03-15T03:45:15.539Z,133.25
2019-03-15T03:47:43.450Z,132.32
2019-03-15T03:50:10.787Z,132.37
2019-03-15T03:52:41.517Z,131.75
2019-03-15T03:55:07.517Z,132.18
2019-03-15T03:57:34.780Z,132.37
2019-03-15T04:00:01.861Z,131.30
2019-03-15T04:02:29.370Z,132.27
2019-03-15T04:04:58.243Z,133.10
2019-03-15T04:07:25.572Z,134.07
2019-03-15T04:09:52.635Z,135.52
2019-03-15T04:12:19.666Z,132.52
2019-03-15T04:14:46.712Z,133.35
2019-03-15T04:17:15.853Z,134.05
2019-03-15T04:19:42.929Z,134.40
2019-03-15T04:22:10.321Z,133.43
2019-03-15T04:24:37.385Z,133.78
2019-03-15T04:27:04.402Z,133.12
2019-03-15T04:29:32.193Z,132.87
2019-03-15T04:32:01.457Z,132.90
2019-03-15T04:34:28.728Z,136.77
2019-03-15T04:36:56.475Z,133.67
2019-03-15T04:39:23.537Z,133.85
2019-03-15T04:41:50.638Z,132.07
2019-03-15T04:44:17.653Z,133.87
2019-03-15T04:46:44.783Z,133.82
2019-03-15T04:49:11.827Z,133.97
2019-03-15T04:51:38.902Z,134.78
2019-03-15T04:54:06.614Z,133.30
2019-03-15T04:56:33.664Z,135.12
2019-03-15T04:59:00.705Z,133.78
2019-03-15T05:01:27.790Z,132.90
2019-03-15T05:03:54.891Z,133.93
2019-03-15T05:06:21.976Z,134.85
2019-03-15T05:08:49.064Z,134.67
2019-03-15T05:11:16.119Z,135.25
2019-03-15T05:13:43.535Z,134.43
2019-03-15T05:16:10.591Z,133.35
2019-03-15T05:18:37.619Z,133.52
2019-03-15T05:21:04.658Z,133.97
2019-03-15T05:23:31.894Z,134.30
2019-03-15T05:25:58.920Z,135.85
2019-03-15T05:28:26.357Z,135.05
2019-03-15T05:30:54.613Z,134.50
2019-03-15T05:33:22.854Z,134.35
2019-03-15T05:35:50.353Z,135.03
2019-03-15T05:38:17.400Z,135.52
2019-03-15T05:40:44.495Z,134.82
2019-03-15T05:43:13.131Z,135.78
2019-03-15T05:45:40.178Z,135.57
2019-03-15T05:48:09.008Z,134.78
2019-03-15T05:50:36.342Z,135.72
2019-03-15T05:53:03.449Z,136.47
2019-03-15T05:55:30.643Z,138.25
2019-03-15T05:58:03.893Z,136.45
2019-03-15T06:00:31.378Z,138.47
2019-03-15T06:02:58.395Z,139.07
2019-03-15T06:05:25.789Z,137.70
2019-03-15T06:07:53.137Z,137.22
2019-03-15T06:10:20.178Z,135.97
2019-03-15T06:12:47.383Z,136.68
2019-03-15T06:15:14.469Z,135.93
2019-03-15T06:17:45.711Z,135.18
2019-03-15T06:20:12.779Z,134.95
2019-03-15T06:22:40.275Z,134.75
2019-03-15T06:25:07.579Z,135.48
2019-03-15T06:27:34.677Z,135.85
2019-03-15T06:30:01.843Z,137.00
2019-03-15T06:32:30.358Z,135.82
2019-03-15T06:34:57.415Z,136.40
2019-03-15T06:37:25.011Z,137.03
2019-03-15T06:39:52.040Z,136.52
2019-03-15T06:42:24.835Z,137.62
2019-03-15T06:45:04.869Z,137.95
2019-03-15T06:47:32.492Z,138.52
2019-03-15T06:49:59.547Z,136.85
2019-03-15T06:52:26.614Z,139.12
2019-03-15T06:54:53.720Z,138.03
2019-03-15T06:57:21.878Z,136.90
2019-03-15T06:59:48.953Z,136.85
2019-03-15T07:02:16.011Z,137.65
2019-03-15T07:04:43.304Z,136.25
2019-03-15T07:07:15.101Z,136.22
2019-03-15T07:09:41.149Z,136.75
2019-03-15T07:12:09.711Z,135.48
2019-03-15T07:14:37.205Z,137.35
2019-03-15T07:17:04.275Z,136.12
2019-03-15T07:19:31.310Z,136.95
2019-03-15T07:21:58.756Z,136.88
2019-03-15T07:24:25.892Z,137.65
2019-03-15T07:26:54.296Z,137.60
2019-03-15T07:29:21.820Z,137.97
2019-03-15T07:31:48.873Z,135.80
2019-03-15T07:34:17.435Z,136.35
2019-03-15T07:36:44.478Z,136.40
2019-03-15T07:39:12.972Z,137.45
2019-03-15T07:41:40.273Z,137.12
2019-03-15T07:44:07.774Z,139.35
2019-03-15T07:46:34.821Z,135.03
2019-03-15T07:49:01.931Z,134.85
2019-03-15T07:51:29.060Z,135.63
2019-03-15T07:53:56.184Z,135.85
2019-03-15T07:56:24.660Z,137.30
2019-03-15T07:58:52.170Z,136.30
2019-03-15T08:01:19.254Z,137.10
2019-03-15T08:03:46.253Z,136.95
2019-03-15T08:06:13.643Z,138.15
2019-03-15T08:08:40.860Z,138.25
2019-03-15T08:11:08.236Z,136.05
2019-03-15T08:13:36.293Z,136.77
2019-03-15T08:16:03.534Z,137.75
2019-03-15T08:18:30.562Z,136.25
2019-03-15T08:20:57.980Z,137.35
2019-03-15T08:23:25.067Z,135.85
2019-03-15T08:25:52.435Z,137.90
2019-03-15T08:28:19.778Z,138.15
2019-03-15T08:31:17.764Z,139.95
2019-03-15T08:33:44.897Z,136.90
2019-03-15T08:36:12.334Z,137.32
2019-03-15T08:38:47.288Z,138.52
2019-03-15T08:41:08.366Z,136.20
2019-03-15T08:43:38.211Z,137.32
2019-03-15T08:46:05.371Z,136.43
2019-03-15T08:48:34.676Z,136.80
2019-03-15T08:51:02.156Z,137.07
2019-03-15T08:53:29.363Z,138.37
2019-03-15T08:55:56.404Z,136.10
2019-03-15T08:58:23.507Z,138.15
2019-03-15T09:00:50.578Z,139.45
2019-03-15T09:03:27.785Z,138.52
2019-03-15T09:05:47.202Z,138.70
2019-03-15T09:08:15.743Z,139.62
2019-03-15T09:10:42.839Z,137.92
2019-03-15T09:13:10.943Z,139.95
2019-03-15T09:15:38.177Z,138.43
2019-03-15T09:18:06.777Z,138.88
2019-03-15T09:20:37.576Z,138.68
2019-03-15T09:23:07.202Z,138.45
2019-03-15T09:25:34.901Z,138.85
2019-03-15T09:28:02.195Z,139.15
2019-03-15T09:30:29.618Z,140.15
2019-03-15T09:33:04.825Z,138.82
2019-03-15T09:35:32.139Z,138.35
2019-03-15T09:38:01.990Z,137.70
2019-03-15T09:40:29.368Z,138.18
2019-03-15T09:42:59.718Z,135.78
2019-03-15T09:45:30.191Z,136.20
2019-03-15T09:47:59.110Z,137.35
2019-03-15T09:50:36.008Z,137.15
2019-03-15T09:52:55.247Z,136.07
2019-03-15T09:55:32.763Z,137.88
2019-03-15T09:57:55.365Z,139.12
2019-03-15T10:00:22.861Z,136.45
2019-03-15T10:02:50.185Z,136.45
2019-03-15T10:05:17.262Z,136.10
2019-03-15T10:07:44.450Z,136.92
2019-03-15T10:10:13.764Z,136.55
2019-03-15T10:12:40.619Z,137.43
2019-03-15T10:15:09.601Z,136.20
2019-03-15T10:17:36.708Z,136.85
2019-03-15T10:20:04.869Z,135.88
2019-03-15T10:22:31.928Z,136.88
2019-03-15T10:24:59.063Z,136.52
2019-03-15T10:27:26.115Z,135.63
2019-03-15T10:29:53.159Z,138.12
2019-03-15T10:32:20.374Z,138.72
2019-03-15T10:34:49.452Z,137.92
2019-03-15T10:37:16.503Z,136.75
2019-03-15T10:39:43.808Z,138.05
2019-03-15T10:42:10.972Z,138.47
2019-03-15T10:44:39.168Z,136.60
2019-03-15T10:47:06.240Z,138.80
2019-03-15T10:49:33.905Z,137.00
2019-03-15T10:52:00.965Z,138.22
2019-03-15T10:54:28.480Z,137.07
2019-03-15T10:56:55.656Z,140.77
2019-03-15T10:59:24.628Z,137.25
2019-03-15T11:01:52.000Z,136.35
2019-03-15T11:04:19.149Z,136.92
2019-03-15T11:06:46.533Z,138.35
2019-03-15T11:09:30.614Z,137.43
2019-03-15T11:12:00.376Z,138.20
2019-03-15T11:14:27.444Z,137.92
2019-03-15T11:16:54.486Z,137.30
2019-03-15T11:19:21.566Z,137.70
2019-03-15T11:21:49.097Z,137.43
2019-03-15T11:24:16.186Z,136.92
2019-03-15T11:26:43.218Z,137.45
2019-03-15T11:29:10.542Z,137.10
2019-03-15T11:31:37.648Z,137.45
2019-03-15T11:34:04.734Z,138.00
2019-03-15T11:36:33.659Z,136.32
2019-03-15T11:39:00.734Z,136.95
2019-03-15T11:41:28.339Z,137.70
2019-03-15T11:43:56.569Z,137.82
2019-03-15T11:46:23.644Z,136.75
2019-03-15T11:48:50.686Z,137.95
2019-03-15T11:51:17.794Z,138.50
2019-03-15T11:53:45.047Z,136.68
2019-03-15T11:56:12.073Z,138.00
2019-03-15T11:58:39.183Z,138.57
2019-03-15T12:01:06.960Z,137.32
2019-03-15T12:03:34.178Z,136.32
2019-03-15T12:06:01.475Z,134.95
2019-03-15T12:08:28.530Z,135.48
2019-03-15T12:10:55.609Z,137.12
2019-03-15T12:13:24.018Z,136.00
2019-03-15T12:15:51.150Z,136.90
2019-03-15T12:18:18.234Z,138.80
2019-03-15T12:20:48.999Z,137.62
2019-03-15T12:23:14.848Z,138.18
2019-03-15T12:25:41.910Z,138.45
2019-03-15T12:28:09.545Z,137.85
2019-03-15T12:30:42.867Z,138.18
2019-03-15T12:33:08.808Z,135.88
2019-03-15T12:35:37.619Z,137.92
2019-03-15T12:38:18.383Z,138.85
2019-03-15T12:40:46.451Z,137.20
2019-03-15T12:43:14.182Z,138.43
2019-03-15T12:45:41.380Z,140.12
2019-03-15T12:48:08.750Z,138.62
2019-03-15T12:50:36.808Z,137.95
2019-03-15T12:53:05.075Z,137.70
2019-03-15T12:55:32.686Z,137.03
2019-03-15T12:57:59.986Z,137.92
2019-03-15T13:00:27.137Z,137.88
2019-03-15T13:02:54.441Z,136.55
2019-03-15T13:05:21.684Z,138.03
2019-03-15T13:07:48.737Z,138.37
2019-03-15T13:10:16.202Z,139.03
2019-03-15T13:12:44.383Z,138.22
2019-03-15T13:15:11.983Z,138.68
2019-03-15T13:17:39.529Z,138.92
2019-03-15T13:20:13.605Z,138.72
2019-03-15T13:22:42.116Z,137.12
2019-03-15T13:25:12.819Z,137.52
2019-03-15T13:27:41.232Z,138.70
2019-03-15T13:30:08.734Z,136.45
2019-03-15T13:32:38.063Z,135.22
2019-03-15T13:35:05.655Z,136.65
2019-03-15T13:37:33.041Z,137.00
2019-03-15T13:40:02.226Z,135.97
2019-03-15T13:42:29.950Z,136.32
2019-03-15T13:44:57.327Z,138.72
2019-03-15T13:47:27.202Z,137.25
2019-03-15T13:49:55.696Z,137.57
2019-03-15T13:52:25.195Z,137.75
2019-03-15T13:54:52.604Z,135.70
2019-03-15T13:57:21.574Z,136.50
2019-03-15T13:59:50.206Z,139.25
2019-03-15T14:02:18.177Z,136.25
2019-03-15T14:04:45.214Z,136.60
2019-03-15T14:07:15.376Z,136.95
2019-03-15T14:09:43.835Z,138.75
2019-03-15T14:12:10.896Z,138.07
2019-03-15T14:14:48.105Z,136.03
2019-03-15T14:17:17.868Z,136.20
2019-03-15T14:19:44.955Z,137.52
2019-03-15T14:22:28.021Z,136.85
2019-03-15T14:24:55.338Z,138.15
2019-03-15T14:27:37.022Z,138.95
2019-03-15T14:29:57.743Z,138.60
2019-03-15T14:32:29.580Z,139.10
2019-03-15T14:35:01.508Z,137.22
2019-03-15T14:37:33.281Z,140.77
2019-03-15T14:40:20.055Z,136.88
2019-03-15T14:42:48.745Z,137.32
2019-03-15T14:45:15.987Z,137.00
2019-03-15T14:47:49.032Z,138.22
2019-03-15T14:50:24.071Z,135.68
2019-03-15T14:52:51.582Z,135.90
2019-03-15T14:55:22.837Z,136.43
2019-03-15T14:57:53.508Z,136.60
2019-03-15T15:00:21.944Z,136.15
2019-03-15T15:02:48.981Z,135.25
2019-03-15T15:05:16.063Z,137.32
2019-03-15T15:07:44.241Z,137.47
2019-03-15T15:10:12.475Z,137.18
2019-03-15T15:12:39.800Z,139.12
2019-03-15T15:15:14.746Z,139.70
2019-03-15T15:17:49.952Z,137.05
2019-03-15T15:20:17.321Z,140.20
2019-03-15T15:22:44.347Z,137.55
2019-03-15T15:25:11.677Z,137.28
2019-03-15T15:27:48.796Z,138.12
2019-03-15T15:30:17.284Z,137.03
2019-03-15T15:32:44.343Z,137.18
2019-03-15T15:35:11.678Z,137.07
2019-03-15T15:37:38.789Z,136.62
2019-03-15T15:40:08.315Z,135.40
2019-03-15T15:42:35.381Z,136.12
2019-03-15T15:45:04.513Z,137.55
2019-03-15T15:47:33.451Z,137.77
2019-03-15T15:50:00.643Z,138.28
2019-03-15T15:52:27.936Z,135.93
2019-03-15T15:54:55.035Z,137.18
2019-03-15T15:57:22.177Z,135.72
2019-03-15T15:59:49.399Z,136.35
2019-03-15T16:02:16.458Z,136.65
2019-03-15T16:04:43.680Z,137.55
2019-03-15T16:07:11.107Z,137.30
2019-03-15T16:09:38.276Z,136.18
2019-03-15T16:12:05.328Z,136.97
2019-03-15T16:14:34.942Z,136.77
2019-03-15T16:17:02.186Z,138.15
2019-03-15T16:19:29.423Z,136.70
2019-03-15T16:21:59.383Z,136.05
2019-03-15T16:24:26.656Z,138.90
2019-03-15T16:26:53.716Z,136.97
2019-03-15T16:29:22.371Z,137.32
2019-03-15T16:31:49.410Z,136.43
2019-03-15T16:34:16.451Z,139.90
2019-03-15T16:36:43.644Z,138.55
2019-03-15T16:39:10.978Z,138.50
2019-03-15T16:41:42.066Z,139.77
2019-03-15T16:44:14.231Z,139.30
2019-03-15T16:46:43.196Z,139.10
2019-03-15T16:49:17.179Z,135.97
2019-03-15T16:51:44.345Z,137.92
2019-03-15T16:54:15.682Z,136.52
2019-03-15T16:56:43.187Z,137.20
2019-03-15T16:59:15.544Z,136.47
2019-03-15T17:01:43.616Z,136.88
2019-03-15T17:04:11.369Z,136.10
2019-03-15T17:06:42.501Z,139.22
2019-03-15T17:09:30.233Z,139.50
2019-03-15T17:11:57.767Z,136.37
2019-03-15T17:14:25.978Z,136.85
2019-03-15T17:16:53.281Z,138.47
2019-03-15T17:19:21.060Z,137.75
2019-03-15T17:21:56.321Z,136.30
2019-03-15T17:24:26.052Z,137.50
2019-03-15T17:26:53.243Z,136.43
2019-03-15T17:29:20.399Z,137.15
2019-03-15T17:31:47.556Z,140.62
2019-03-15T17:34:14.723Z,137.30
2019-03-15T17:36:41.828Z,138.90
2019-03-15T17:39:08.894Z,140.25
2019-03-15T17:41:36.089Z,137.32
2019-03-15T17:47:41.762Z,138.28
2019-03-15T17:50:11.192Z,138.18
2019-03-15T17:52:38.322Z,141.60
2019-03-15T17:55:05.868Z,138.03
2019-03-15T17:57:34.753Z,137.80
2019-03-15T18:00:13.639Z,138.43
2019-03-15T18:02:41.279Z,140.73
2019-03-15T18:05:08.769Z,136.80
2019-03-15T18:07:35.868Z,137.05
2019-03-15T18:10:03.829Z,136.77
2019-03-15T18:12:43.587Z,141.53
2019-03-15T18:15:10.730Z,137.45
2019-03-15T18:17:48.665Z,136.15
2019-03-15T18:20:15.916Z,136.70
2019-03-15T18:22:45.000Z,138.12
2019-03-15T18:25:12.061Z,138.88
2019-03-15T18:27:39.421Z,136.77
2019-03-15T18:30:07.482Z,137.65
2019-03-15T18:32:34.564Z,135.50
2019-03-15T18:35:01.798Z,136.62
2019-03-15T18:37:29.174Z,137.28
2019-03-15T18:39:56.644Z,136.85
2019-03-15T18:42:24.292Z,137.57
2019-03-15T18:44:52.288Z,136.07
2019-03-15T18:47:21.420Z,135.12
2019-03-15T18:49:49.205Z,135.63
2019-03-15T18:52:19.420Z,136.18
2019-03-15T18:54:47.758Z,136.50
2019-03-15T18:57:15.306Z,135.72
2019-03-15T18:59:42.426Z,137.22
2019-03-15T19:02:09.570Z,135.07
2019-03-15T19:04:36.724Z,134.78
2019-03-15T19:07:03.777Z,135.70
2019-03-15T19:09:30.995Z,136.65
2019-03-15T19:11:58.095Z,135.32
2019-03-15T19:14:28.267Z,136.50
2019-03-15T19:16:59.669Z,136.07
2019-03-15T19:19:27.957Z,136.32
2019-03-15T19:21:57.044Z,136.92
2019-03-15T19:24:24.116Z,136.25
2019-03-15T19:26:51.355Z,135.75
2019-03-15T19:29:18.656Z,136.12
2019-03-15T19:31:45.741Z,134.93
2019-03-15T19:34:12.812Z,136.82
2019-03-15T19:36:40.241Z,135.68
2019-03-15T19:39:07.351Z,136.88
2019-03-15T19:41:34.587Z,134.93
2019-03-15T19:44:03.502Z,134.50
2019-03-15T19:46:30.711Z,136.40
2019-03-15T19:48:57.897Z,135.90
2019-03-15T19:51:25.107Z,136.88
2019-03-15T19:53:54.352Z,134.70
2019-03-15T19:56:23.235Z,135.25
2019-03-15T19:58:50.288Z,136.65
2019-03-15T20:01:17.522Z,135.32
2019-03-15T20:03:45.069Z,136.18
2019-03-15T20:06:12.803Z,136.37
2019-03-15T20:08:41.463Z,135.95
2019-03-15T20:11:10.845Z,135.85
2019-03-15T20:13:38.010Z,135.40
2019-03-15T20:16:05.174Z,134.40
2019-03-15T20:18:32.220Z,135.00
2019-03-15T20:20:59.409Z,136.40
2019-03-15T20:23:26.938Z,134.60
2019-03-15T20:25:54.206Z,135.32
2019-03-15T20:28:21.676Z,134.37
2019-03-15T20:30:52.187Z,136.22
2019-03-15T20:33:19.889Z,134.75
2019-03-15T20:35:47.078Z,134.03
2019-03-15T20:38:14.709Z,135.30
2019-03-15T20:40:41.909Z,134.80
2019-03-15T20:43:08.982Z,135.20
2019-03-15T20:45:36.276Z,134.60
2019-03-15T20:48:03.399Z,136.15
2019-03-15T20:50:30.613Z,134.87
2019-03-15T20:53:07.841Z,134.50
2019-03-15T20:55:28.916Z,134.52
2019-03-15T20:57:56.911Z,134.12
2019-03-15T21:00:34.848Z,135.72
2019-03-15T21:02:53.699Z,134.30
2019-03-15T21:05:20.773Z,135.22
2019-03-15T21:07:48.397Z,134.43
2019-03-15T21:10:15.833Z,135.90
2019-03-15T21:12:42.927Z,134.32
2019-03-15T21:15:10.418Z,133.93
2019-03-15T21:17:38.421Z,134.57
2019-03-15T21:20:08.486Z,135.68
2019-03-15T21:22:38.506Z,134.43
2019-03-15T21:25:06.476Z,136.75
2019-03-15T21:27:33.647Z,135.25
2019-03-15T21:30:00.994Z,134.67
2019-03-15T21:32:34.442Z,137.05
2019-03-15T21:35:01.854Z,135.90
2019-03-15T21:37:29.846Z,135.75
2019-03-15T21:39:57.777Z,134.47
2019-03-15T21:42:25.242Z,135.48
2019-03-15T21:44:52.296Z,136.15
2019-03-15T21:47:19.866Z,134.87
2019-03-15T21:49:46.982Z,136.88
2019-03-15T21:52:14.128Z,137.10
2019-03-15T21:54:41.531Z,136.10
2019-03-15T21:57:08.642Z,135.25
2019-03-15T21:59:39.116Z,136.20
2019-03-15T22:02:06.886Z,134.45
2019-03-15T22:04:34.021Z,134.67
2019-03-15T22:07:01.345Z,134.60
2019-03-15T22:09:28.570Z,135.37
2019-03-15T22:11:55.676Z,137.32
2019-03-15T22:14:22.771Z,136.07
2019-03-15T22:16:50.403Z,135.68
2019-03-15T22:19:18.589Z,135.37
2019-03-15T22:21:45.671Z,135.28
2019-03-15T22:24:13.155Z,135.45
2019-03-15T22:26:40.331Z,137.40
2019-03-15T22:29:07.757Z,135.10
2019-03-15T22:31:35.973Z,134.37
2019-03-15T22:34:04.985Z,136.00
2019-03-15T22:36:32.206Z,136.77
2019-03-15T22:38:59.297Z,135.07
2019-03-15T22:41:26.358Z,137.35
2019-03-15T22:44:05.456Z,136.00
2019-03-15T22:46:38.347Z,138.30
2019-03-15T22:49:14.703Z,136.45
2019-03-15T22:51:41.723Z,136.85
2019-03-15T22:54:08.695Z,137.15
2019-03-15T22:56:38.616Z,136.77
2019-03-15T22:59:07.505Z,135.12
2019-03-15T23:01:34.570Z,136.05
2019-03-15T23:04:01.663Z,135.12
2019-03-15T23:06:28.876Z,135.75
2019-03-15T23:08:56.430Z,135.20
2019-03-15T23:11:23.577Z,135.18
2019-03-15T23:13:52.547Z,137.72
2019-03-15T23:16:20.788Z,138.72
2019-03-15T23:18:48.151Z,137.85
2019-03-15T23:21:15.337Z,135.03
2019-03-15T23:23:42.372Z,137.82
2019-03-15T23:26:10.055Z,137.15
2019-03-15T23:28:37.145Z,134.63
2019-03-15T23:31:04.215Z,135.37
2019-03-15T23:33:33.090Z,136.00
2019-03-15T23:36:00.196Z,134.55
2019-03-15T23:38:27.249Z,135.43
2019-03-15T23:40:58.686Z,136.77
2019-03-15T23:43:25.751Z,133.97
2019-03-15T23:45:54.634Z,134.67
2019-03-15T23:48:21.739Z,134.78
2019-03-15T23:50:48.777Z,135.82
2019-03-15T23:53:15.877Z,134.32
2019-03-15T23:55:42.975Z,136.18
2019-03-15T23:58:10.061Z,134.07
